Stations météo

réclame
Mon MeteoGroup
Salsburgh, Grande-Bretagne (99024): Température de l'air & dewpoint: 12.11.2018 16:00:00 - 18.11.2018 16:00:00 (GMT)Salsburgh, Grande-Bretagne (99024): Vitesse du vent & gusts: 12.11.2018 16:00:00 - 18.11.2018 16:00:00 (GMT)Salsburgh, Grande-Bretagne (99024): Direction du vent: 12.11.2018 16:00:00 - 18.11.2018 16:00:00 (GMT)Salsburgh, Grande-Bretagne (99024): Quantités de précipitations: 12.11.2018 16:00:00 - 18.11.2018 16:00:00 (GMT)
Date & Time tt [°C] td [°C] ff [km/h] ff [knt] fx [km/h] fx [knt] dd rr [mm]
18.11.2018 16:00:00 6,4 5,8 28 15 - - ENE 0,0
18.11.2018 15:00:00 6,9 5,8 26 14 - - ENE 0,0
18.11.2018 14:00:00 7,3 5,2 24 13 - - ENE 0,0
18.11.2018 13:00:00 7,0 4,8 22 12 - - ENE 0,0
18.11.2018 12:00:00 6,7 5,2 26 14 - - ENE 0,0
18.11.2018 11:00:00 5,8 4,6 22 12 - - ENE 0,0
18.11.2018 10:00:00 4,7 3,5 31 17 50 27 E 0,0
18.11.2018 09:00:00 4,0 3,0 29 16 - - ENE 0,0
18.11.2018 08:00:00 3,5 3,0 31 17 - - E 0,0
18.11.2018 07:00:00 3,8 3,4 29 16 - - ENE 0,0
18.11.2018 06:00:00 3,2 3,2 34 18 - - E 0,0
18.11.2018 05:00:00 3,3 3,2 28 15 - - E 0,0
18.11.2018 04:00:00 4,2 4,0 26 14 - - ENE 0,0
18.11.2018 03:00:00 3,9 3,8 22 12 - - ENE 0,0
18.11.2018 02:00:00 4,1 3,9 18 10 - - ENE 0,0
18.11.2018 01:00:00 4,2 4,0 21 11 - - NE 0,2
18.11.2018 00:00:00 4,3 4,2 22 12 - - ENE 0,0
17.11.2018 23:00:00 4,3 4,3 26 14 - - ENE 0,0
17.11.2018 22:00:00 4,9 4,9 21 11 - - ENE 0,0
17.11.2018 21:00:00 4,7 4,7 28 15 - - ENE 0,0
17.11.2018 20:00:00 4,7 4,6 24 13 - - ENE 0,0
17.11.2018 19:00:00 4,7 4,4 26 14 - - ENE 0,0
17.11.2018 18:00:00 4,8 4,5 28 15 - - ENE 0,0
17.11.2018 17:00:00 5,3 5,0 29 16 - - ENE 0,0
17.11.2018 16:00:00 5,7 4,9 28 15 - - ENE 0,0
17.11.2018 15:00:00 6,6 4,8 29 16 - - ENE 0,0
17.11.2018 14:00:00 7,1 5,0 22 12 - - ENE 0,0
17.11.2018 13:00:00 7,2 5,3 24 13 - - ENE 0,0
17.11.2018 12:00:00 6,7 5,0 26 14 - - ENE 0,0
17.11.2018 11:00:00 6,2 4,8 28 15 - - ENE 0,0
17.11.2018 10:00:00 5,4 4,6 24 13 - - ENE 0,0
17.11.2018 09:00:00 4,5 4,0 22 12 - - ENE 0,0
17.11.2018 08:00:00 3,9 3,6 26 14 - - ENE 0,0
17.11.2018 07:00:00 4,2 3,8 31 17 - - ENE 0,0
17.11.2018 06:00:00 4,9 4,7 28 15 - - ENE 0,0
17.11.2018 05:00:00 5,7 5,6 28 15 - - ENE 0,0
17.11.2018 04:00:00 7,2 7,1 22 12 - - ENE 0,0
17.11.2018 03:00:00 8,2 8,2 15 8 - - ENE 0,0
17.11.2018 02:00:00 8,2 8,2 15 8 - - ENE 0,0
17.11.2018 01:00:00 8,0 8,0 13 7 - - ENE 0,0
17.11.2018 00:00:00 7,9 7,9 15 8 - - E 0,0
16.11.2018 23:00:00 8,0 8,0 22 12 - - ENE 0,0
16.11.2018 22:00:00 7,1 7,1 16 9 - - ENE 0,0
16.11.2018 21:00:00 7,8 7,7 21 11 - - E 0,0
16.11.2018 20:00:00 8,3 7,6 15 8 - - E 0,0
16.11.2018 19:00:00 9,9 8,5 8 4 - - E 0,0
16.11.2018 18:00:00 10,6 9,2 11 6 - - ESE 0,0
16.11.2018 17:00:00 10,8 9,3 9 5 - - ESE 0,0
16.11.2018 16:00:00 11,1 9,4 9 5 - - ESE 0,0
16.11.2018 15:00:00 11,4 9,4 18 10 - - SSE 0,0
16.11.2018 14:00:00 12,2 9,8 16 9 - - SSE 0,0
16.11.2018 13:00:00 11,7 10,2 21 11 - - SSE 0,0
16.11.2018 12:00:00 11,6 10,3 21 11 - - SSE 0,0
16.11.2018 11:00:00 11,1 10,4 16 9 - - S 0,0
16.11.2018 10:00:00 10,7 10,0 22 12 - - SSE 0,0
16.11.2018 09:00:00 10,4 10,0 21 11 - - SSE 0,0
16.11.2018 08:00:00 9,9 9,5 21 11 - - SSE 0,0
16.11.2018 07:00:00 9,4 9,1 18 10 - - SSE 0,0
16.11.2018 06:00:00 8,1 7,9 16 9 - - SE 0,0
16.11.2018 05:00:00 7,1 7,0 16 9 - - SSE 0,0
16.11.2018 04:00:00 6,7 6,6 15 8 - - SSE 0,0
16.11.2018 03:00:00 6,3 6,3 13 7 - - SSE 0,0
16.11.2018 02:00:00 6,4 6,1 13 7 - - S 0,0
16.11.2018 01:00:00 7,0 5,9 11 6 - - S 0,0
16.11.2018 00:00:00 8,4 6,9 18 10 - - S 0,0
15.11.2018 23:00:00 8,7 7,2 22 12 - - S 0,0
15.11.2018 22:00:00 8,5 7,6 22 12 - - SSW 0,0
15.11.2018 21:00:00 8,2 7,9 26 14 - - S 0,4
15.11.2018 20:00:00 8,2 7,9 21 11 - - SW 0,4
15.11.2018 19:00:00 8,4 8,2 29 16 55 30 WSW 1,6
15.11.2018 18:00:00 11,0 9,0 35 19 63 34 S 0,0
15.11.2018 17:00:00 10,5 8,6 41 22 54 29 S 0,0
15.11.2018 16:00:00 10,0 8,1 35 19 48 26 S 0,0
15.11.2018 15:00:00 9,8 7,2 22 12 - - S 0,0
15.11.2018 14:00:00 9,9 6,5 34 18 63 34 S 0,0
15.11.2018 13:00:00 11,1 5,6 39 21 55 30 S 0,0
15.11.2018 12:00:00 10,8 6,1 37 20 59 32 S 0,0
15.11.2018 11:00:00 9,3 7,1 41 22 55 30 S 0,0
15.11.2018 10:00:00 9,1 6,4 41 22 67 36 S 0,0
15.11.2018 09:00:00 8,7 6,5 48 26 63 34 S 0,0
15.11.2018 08:00:00 8,8 7,5 41 22 65 35 S 0,0
15.11.2018 07:00:00 8,7 7,8 46 25 63 34 S 0,0
15.11.2018 06:00:00 8,9 8,2 34 18 54 29 S 0,0
15.11.2018 05:00:00 9,5 8,8 37 20 50 27 S 0,0
15.11.2018 04:00:00 9,7 9,1 34 18 50 27 S 0,0
15.11.2018 03:00:00 9,8 9,1 28 15 - - S 0,0
15.11.2018 02:00:00 10,1 9,2 26 14 48 26 S 0,0
15.11.2018 01:00:00 10,2 9,0 31 17 65 35 S 0,0
15.11.2018 00:00:00 10,5 9,4 41 22 55 30 S 0,0
14.11.2018 23:00:00 10,5 9,2 37 20 65 35 S 0,0
14.11.2018 22:00:00 10,6 9,3 46 25 76 41 S 0,0
14.11.2018 21:00:00 10,5 9,6 46 25 68 37 S 0,0
14.11.2018 20:00:00 10,5 9,9 52 28 72 39 S 0,0
14.11.2018 19:00:00 10,8 10,2 44 24 59 32 S 0,0
14.11.2018 18:00:00 11,2 10,4 34 18 52 28 S 0,0
14.11.2018 17:00:00 11,3 10,9 41 22 59 32 S 0,0
14.11.2018 16:00:00 11,4 11,0 41 22 63 34 S 0,0
14.11.2018 15:00:00 11,5 11,2 46 25 63 34 S 0,0
14.11.2018 14:00:00 11,6 11,5 39 21 57 31 S 0,4
14.11.2018 13:00:00 11,6 11,5 39 21 63 34 S 1,4
14.11.2018 12:00:00 11,6 11,2 42 23 59 32 S 0,4
14.11.2018 11:00:00 11,5 11,2 42 23 61 33 S 0,6
14.11.2018 10:00:00 11,6 11,3 42 23 59 32 S 0,8
14.11.2018 09:00:00 11,4 11,2 41 22 55 30 S 1,0
14.11.2018 08:00:00 10,5 10,5 39 21 54 29 S 1,4
14.11.2018 07:00:00 9,6 9,5 39 21 57 31 S 0,8
14.11.2018 06:00:00 9,2 9,0 41 22 57 31 S 0,4
14.11.2018 05:00:00 9,2 8,9 37 20 61 33 S 0,4
14.11.2018 04:00:00 9,1 8,7 41 22 54 29 S 0,4
14.11.2018 03:00:00 8,9 8,7 35 19 50 27 S 0,4
14.11.2018 02:00:00 9,7 8,3 29 16 52 28 S 0,0
14.11.2018 01:00:00 9,4 8,7 31 17 - - S 0,0
14.11.2018 00:00:00 9,5 7,5 34 18 48 26 S 0,0
13.11.2018 23:00:00 8,8 8,1 29 16 - - S 0,0
13.11.2018 22:00:00 8,6 7,1 29 16 - - S 0,0
13.11.2018 21:00:00 8,3 7,0 29 16 - - S 0,0
13.11.2018 20:00:00 7,4 6,2 26 14 - - S 0,0
13.11.2018 19:00:00 7,6 5,8 29 16 - - S 0,0
13.11.2018 18:00:00 7,3 5,3 24 13 - - S 0,0
13.11.2018 17:00:00 7,1 5,4 24 13 - - S 0,0
13.11.2018 16:00:00 7,7 6,0 22 12 - - SSW 0,0
13.11.2018 15:00:00 7,8 5,7 29 16 48 26 SSW 0,0
13.11.2018 14:00:00 8,8 6,6 34 18 50 27 SW 0,0
13.11.2018 13:00:00 8,2 6,6 34 18 52 28 SW 0,0
13.11.2018 12:00:00 8,7 6,7 37 20 52 28 WSW 0,0
13.11.2018 11:00:00 8,4 6,6 34 18 52 28 WSW 0,0
13.11.2018 10:00:00 7,9 6,9 34 18 54 29 WSW 0,0
13.11.2018 09:00:00 7,5 7,3 34 18 46 25 WSW 0,0
13.11.2018 08:00:00 7,5 7,5 29 16 46 25 WSW 0,0
13.11.2018 07:00:00 7,7 7,7 34 18 46 25 WSW 0,2
13.11.2018 06:00:00 7,5 7,5 28 15 - - SW 0,6
13.11.2018 05:00:00 7,3 7,3 24 13 - - SW 0,4
13.11.2018 04:00:00 7,0 7,0 22 12 - - SSW 0,2
13.11.2018 03:00:00 6,8 6,8 16 9 - - SSW 0,2
13.11.2018 02:00:00 6,8 6,6 21 11 - - S 0,4
13.11.2018 01:00:00 6,7 6,1 21 11 - - S 0,0
13.11.2018 00:00:00 6,8 5,9 21 11 - - S 0,0
12.11.2018 23:00:00 6,8 6,2 18 10 - - S 0,0
12.11.2018 22:00:00 6,7 6,1 18 10 - - SSE 0,0
12.11.2018 21:00:00 6,8 6,1 21 11 - - S 0,0
12.11.2018 20:00:00 7,0 6,5 26 14 - - S 0,2
12.11.2018 19:00:00 7,2 6,4 26 14 - - S 0,0
12.11.2018 18:00:00 6,6 5,9 21 11 - - S 0,0
12.11.2018 17:00:00 7,1 6,7 28 15 - - S 0,2
12.11.2018 16:00:00 7,7 7,1 28 15 - - S 1,0

tt = Température de l'air
td = dewpoint
ff = Vitesse du vent
fx = gusts
dd = Direction du vent
rr = Quantités de précipitations

stations d'obs. à proximité